sensor_id;sensor_type;location;lat;lon;timestamp;P1;durP1;ratioP1;P2;durP2;ratioP2
11498;SDS011;5806;48.748;9.278;2022-12-29T00:02:03;1.40;;;0.80;;
11498;SDS011;5806;48.748;9.278;2022-12-29T00:04:31;0.97;;;0.80;;
11498;SDS011;5806;48.748;9.278;2022-12-29T00:06:58;1.67;;;0.80;;
11498;SDS011;5806;48.748;9.278;2022-12-29T00:09:26;0.70;;;0.70;;
11498;SDS011;5806;48.748;9.278;2022-12-29T00:11:54;0.60;;;0.60;;
11498;SDS011;5806;48.748;9.278;2022-12-29T00:14:21;1.40;;;0.70;;
11498;SDS011;5806;48.748;9.278;2022-12-29T00:17:07;1.07;;;0.80;;
11498;SDS011;5806;48.748;9.278;2022-12-29T00:19:34;1.67;;;0.80;;
11498;SDS011;5806;48.748;9.278;2022-12-29T00:22:19;0.80;;;0.50;;
11498;SDS011;5806;48.748;9.278;2022-12-29T00:25:07;0.63;;;0.63;;
11498;SDS011;5806;48.748;9.278;2022-12-29T00:27:36;0.60;;;0.60;;
11498;SDS011;5806;48.748;9.278;2022-12-29T00:30:22;0.80;;;0.73;;
11498;SDS011;5806;48.748;9.278;2022-12-29T00:33:13;1.10;;;0.60;;
11498;SDS011;5806;48.748;9.278;2022-12-29T00:38:57;0.90;;;0.50;;
11498;SDS011;5806;48.748;9.278;2022-12-29T00:41:34;0.77;;;0.50;;
11498;SDS011;5806;48.748;9.278;2022-12-29T00:44:20;0.97;;;0.60;;
11498;SDS011;5806;48.748;9.278;2022-12-29T00:46:47;0.53;;;0.53;;
11498;SDS011;5806;48.748;9.278;2022-12-29T00:49:15;1.70;;;0.50;;
11498;SDS011;5806;48.748;9.278;2022-12-29T00:54:32;1.13;;;0.40;;
11498;SDS011;5806;48.748;9.278;2022-12-29T00:57:01;0.57;;;0.40;;
11498;SDS011;5806;48.748;9.278;2022-12-29T00:59:30;0.40;;;0.30;;
11498;SDS011;5806;48.748;9.278;2022-12-29T01:01:57;0.40;;;0.40;;
11498;SDS011;5806;48.748;9.278;2022-12-29T01:04:25;0.70;;;0.40;;
11498;SDS011;5806;48.748;9.278;2022-12-29T01:06:53;0.60;;;0.40;;
11498;SDS011;5806;48.748;9.278;2022-12-29T01:09:20;0.33;;;0.30;;
11498;SDS011;5806;48.748;9.278;2022-12-29T01:12:06;0.40;;;0.40;;
11498;SDS011;5806;48.748;9.278;2022-12-29T01:14:34;0.67;;;0.40;;
11498;SDS011;5806;48.748;9.278;2022-12-29T01:17:03;0.60;;;0.40;;
11498;SDS011;5806;48.748;9.278;2022-12-29T01:19:30;0.63;;;0.43;;
11498;SDS011;5806;48.748;9.278;2022-12-29T01:21:58;0.40;;;0.40;;
11498;SDS011;5806;48.748;9.278;2022-12-29T01:24:25;0.30;;;0.30;;
11498;SDS011;5806;48.748;9.278;2022-12-29T01:26:53;0.20;;;0.20;;
11498;SDS011;5806;48.748;9.278;2022-12-29T01:29:20;0.30;;;0.30;;
11498;SDS011;5806;48.748;9.278;2022-12-29T01:31:48;2.83;;;0.30;;
11498;SDS011;5806;48.748;9.278;2022-12-29T01:34:16;0.90;;;0.20;;
11498;SDS011;5806;48.748;9.278;2022-12-29T01:36:44;0.40;;;0.30;;
11498;SDS011;5806;48.748;9.278;2022-12-29T01:39:11;0.30;;;0.30;;
11498;SDS011;5806;48.748;9.278;2022-12-29T01:41:38;0.50;;;0.30;;
11498;SDS011;5806;48.748;9.278;2022-12-29T01:47:10;0.40;;;0.40;;
11498;SDS011;5806;48.748;9.278;2022-12-29T01:49:37;0.30;;;0.30;;
11498;SDS011;5806;48.748;9.278;2022-12-29T01:52:06;0.20;;;0.20;;
11498;SDS011;5806;48.748;9.278;2022-12-29T01:54:36;0.50;;;0.30;;
11498;SDS011;5806;48.748;9.278;2022-12-29T01:57:05;0.70;;;0.27;;
11498;SDS011;5806;48.748;9.278;2022-12-29T01:59:39;0.40;;;0.30;;
11498;SDS011;5806;48.748;9.278;2022-12-29T02:02:08;0.23;;;0.20;;
11498;SDS011;5806;48.748;9.278;2022-12-29T02:07:58;0.63;;;0.40;;
11498;SDS011;5806;48.748;9.278;2022-12-29T02:10:27;0.93;;;0.40;;
11498;SDS011;5806;48.748;9.278;2022-12-29T02:12:58;1.03;;;0.30;;
11498;SDS011;5806;48.748;9.278;2022-12-29T02:15:33;0.73;;;0.30;;
11498;SDS011;5806;48.748;9.278;2022-12-29T02:20:42;1.43;;;0.40;;
11498;SDS011;5806;48.748;9.278;2022-12-29T02:28:59;0.40;;;0.30;;
11498;SDS011;5806;48.748;9.278;2022-12-29T02:31:31;3.03;;;0.43;;
11498;SDS011;5806;48.748;9.278;2022-12-29T02:34:27;1.17;;;0.50;;
11498;SDS011;5806;48.748;9.278;2022-12-29T02:37:13;1.53;;;0.57;;
11498;SDS011;5806;48.748;9.278;2022-12-29T02:39:53;2.17;;;0.67;;
11498;SDS011;5806;48.748;9.278;2022-12-29T02:42:29;0.40;;;0.40;;
11498;SDS011;5806;48.748;9.278;2022-12-29T02:50:33;0.53;;;0.53;;
11498;SDS011;5806;48.748;9.278;2022-12-29T02:53:14;0.80;;;0.70;;
11498;SDS011;5806;48.748;9.278;2022-12-29T02:55:49;1.20;;;0.50;;
11498;SDS011;5806;48.748;9.278;2022-12-29T02:58:19;0.60;;;0.40;;
11498;SDS011;5806;48.748;9.278;2022-12-29T03:00:52;1.13;;;0.60;;
11498;SDS011;5806;48.748;9.278;2022-12-29T03:06:21;3.27;;;0.40;;
11498;SDS011;5806;48.748;9.278;2022-12-29T03:11:36;1.27;;;0.40;;
11498;SDS011;5806;48.748;9.278;2022-12-29T03:15:10;1.23;;;0.60;;
11498;SDS011;5806;48.748;9.278;2022-12-29T03:17:37;1.33;;;0.40;;
11498;SDS011;5806;48.748;9.278;2022-12-29T03:19:58;1.40;;;0.50;;
11498;SDS011;5806;48.748;9.278;2022-12-29T03:22:28;1.80;;;0.50;;
11498;SDS011;5806;48.748;9.278;2022-12-29T03:27:39;0.70;;;0.40;;
11498;SDS011;5806;48.748;9.278;2022-12-29T03:30:09;1.00;;;0.57;;
11498;SDS011;5806;48.748;9.278;2022-12-29T03:32:52;0.50;;;0.50;;
11498;SDS011;5806;48.748;9.278;2022-12-29T03:35:17;0.40;;;0.40;;
11498;SDS011;5806;48.748;9.278;2022-12-29T03:37:57;0.60;;;0.33;;
11498;SDS011;5806;48.748;9.278;2022-12-29T03:40:20;0.40;;;0.20;;
11498;SDS011;5806;48.748;9.278;2022-12-29T03:42:50;0.53;;;0.30;;
11498;SDS011;5806;48.748;9.278;2022-12-29T03:45:19;0.73;;;0.40;;
11498;SDS011;5806;48.748;9.278;2022-12-29T03:47:47;0.77;;;0.50;;
11498;SDS011;5806;48.748;9.278;2022-12-29T03:50:14;0.93;;;0.40;;
11498;SDS011;5806;48.748;9.278;2022-12-29T03:52:42;0.93;;;0.50;;
11498;SDS011;5806;48.748;9.278;2022-12-29T03:55:09;0.33;;;0.30;;
11498;SDS011;5806;48.748;9.278;2022-12-29T03:57:37;0.30;;;0.30;;
11498;SDS011;5806;48.748;9.278;2022-12-29T04:00:05;1.83;;;0.50;;
11498;SDS011;5806;48.748;9.278;2022-12-29T04:02:34;3.90;;;0.40;;
11498;SDS011;5806;48.748;9.278;2022-12-29T04:05:02;2.80;;;0.87;;
11498;SDS011;5806;48.748;9.278;2022-12-29T04:07:29;2.00;;;0.40;;
11498;SDS011;5806;48.748;9.278;2022-12-29T04:09:57;1.77;;;0.43;;
11498;SDS011;5806;48.748;9.278;2022-12-29T04:12:24;1.00;;;0.63;;
11498;SDS011;5806;48.748;9.278;2022-12-29T04:14:52;0.53;;;0.30;;
11498;SDS011;5806;48.748;9.278;2022-12-29T04:17:19;0.93;;;0.53;;
11498;SDS011;5806;48.748;9.278;2022-12-29T04:19:46;0.70;;;0.60;;
11498;SDS011;5806;48.748;9.278;2022-12-29T04:22:14;1.27;;;0.53;;
11498;SDS011;5806;48.748;9.278;2022-12-29T04:24:41;0.77;;;0.50;;
11498;SDS011;5806;48.748;9.278;2022-12-29T04:27:09;1.20;;;0.60;;
11498;SDS011;5806;48.748;9.278;2022-12-29T04:29:36;0.40;;;0.40;;
11498;SDS011;5806;48.748;9.278;2022-12-29T04:32:04;0.40;;;0.40;;
11498;SDS011;5806;48.748;9.278;2022-12-29T04:34:31;0.60;;;0.47;;
11498;SDS011;5806;48.748;9.278;2022-12-29T04:36:58;0.70;;;0.50;;
11498;SDS011;5806;48.748;9.278;2022-12-29T04:39:26;0.70;;;0.57;;
11498;SDS011;5806;48.748;9.278;2022-12-29T04:41:53;0.47;;;0.47;;
11498;SDS011;5806;48.748;9.278;2022-12-29T04:44:21;0.80;;;0.50;;
11498;SDS011;5806;48.748;9.278;2022-12-29T04:46:48;0.40;;;0.40;;
11498;SDS011;5806;48.748;9.278;2022-12-29T04:49:15;0.57;;;0.30;;
11498;SDS011;5806;48.748;9.278;2022-12-29T04:51:43;1.30;;;0.50;;
11498;SDS011;5806;48.748;9.278;2022-12-29T04:54:10;0.87;;;0.40;;
11498;SDS011;5806;48.748;9.278;2022-12-29T04:56:38;3.83;;;0.60;;
11498;SDS011;5806;48.748;9.278;2022-12-29T04:59:05;0.97;;;0.50;;
11498;SDS011;5806;48.748;9.278;2022-12-29T05:01:32;0.63;;;0.47;;
11498;SDS011;5806;48.748;9.278;2022-12-29T05:04:00;1.03;;;0.37;;
11498;SDS011;5806;48.748;9.278;2022-12-29T05:06:27;0.80;;;0.40;;
11498;SDS011;5806;48.748;9.278;2022-12-29T05:08:55;0.70;;;0.43;;
11498;SDS011;5806;48.748;9.278;2022-12-29T05:11:22;0.47;;;0.40;;
11498;SDS011;5806;48.748;9.278;2022-12-29T05:13:50;0.70;;;0.40;;
11498;SDS011;5806;48.748;9.278;2022-12-29T05:16:17;0.40;;;0.30;;
11498;SDS011;5806;48.748;9.278;2022-12-29T05:18:44;1.60;;;0.50;;
11498;SDS011;5806;48.748;9.278;2022-12-29T05:21:12;0.63;;;0.33;;
11498;SDS011;5806;48.748;9.278;2022-12-29T05:23:39;0.70;;;0.43;;
11498;SDS011;5806;48.748;9.278;2022-12-29T05:26:07;1.13;;;0.30;;
11498;SDS011;5806;48.748;9.278;2022-12-29T05:28:34;1.37;;;0.37;;
11498;SDS011;5806;48.748;9.278;2022-12-29T05:31:01;1.53;;;0.50;;
11498;SDS011;5806;48.748;9.278;2022-12-29T05:33:29;1.43;;;0.53;;
11498;SDS011;5806;48.748;9.278;2022-12-29T05:35:56;0.97;;;0.30;;
11498;SDS011;5806;48.748;9.278;2022-12-29T05:38:25;2.37;;;0.70;;
11498;SDS011;5806;48.748;9.278;2022-12-29T05:40:53;2.30;;;0.60;;
11498;SDS011;5806;48.748;9.278;2022-12-29T05:43:20;1.10;;;0.40;;
11498;SDS011;5806;48.748;9.278;2022-12-29T05:45:48;0.33;;;0.30;;
11498;SDS011;5806;48.748;9.278;2022-12-29T05:48:15;1.57;;;0.40;;
11498;SDS011;5806;48.748;9.278;2022-12-29T05:50:46;0.50;;;0.30;;
11498;SDS011;5806;48.748;9.278;2022-12-29T05:53:15;0.40;;;0.30;;
11498;SDS011;5806;48.748;9.278;2022-12-29T05:55:43;1.07;;;0.33;;
11498;SDS011;5806;48.748;9.278;2022-12-29T05:58:12;1.30;;;0.30;;
11498;SDS011;5806;48.748;9.278;2022-12-29T06:00:40;0.40;;;0.37;;
11498;SDS011;5806;48.748;9.278;2022-12-29T06:03:07;0.83;;;0.30;;
11498;SDS011;5806;48.748;9.278;2022-12-29T06:05:35;1.20;;;0.30;;
11498;SDS011;5806;48.748;9.278;2022-12-29T06:08:02;0.63;;;0.40;;
11498;SDS011;5806;48.748;9.278;2022-12-29T06:10:30;0.33;;;0.30;;
11498;SDS011;5806;48.748;9.278;2022-12-29T06:12:57;0.50;;;0.30;;
11498;SDS011;5806;48.748;9.278;2022-12-29T06:15:25;0.30;;;0.20;;
11498;SDS011;5806;48.748;9.278;2022-12-29T06:17:52;0.50;;;0.30;;
11498;SDS011;5806;48.748;9.278;2022-12-29T06:20:20;0.40;;;0.30;;
11498;SDS011;5806;48.748;9.278;2022-12-29T06:22:47;0.37;;;0.20;;
11498;SDS011;5806;48.748;9.278;2022-12-29T06:25:14;0.73;;;0.20;;
11498;SDS011;5806;48.748;9.278;2022-12-29T06:27:42;1.10;;;0.27;;
11498;SDS011;5806;48.748;9.278;2022-12-29T06:30:10;2.03;;;0.40;;
11498;SDS011;5806;48.748;9.278;2022-12-29T06:32:38;1.83;;;0.30;;
11498;SDS011;5806;48.748;9.278;2022-12-29T06:35:06;0.30;;;0.30;;
11498;SDS011;5806;48.748;9.278;2022-12-29T06:37:33;0.70;;;0.20;;
11498;SDS011;5806;48.748;9.278;2022-12-29T06:40:01;0.20;;;0.20;;
11498;SDS011;5806;48.748;9.278;2022-12-29T06:42:28;0.27;;;0.20;;
11498;SDS011;5806;48.748;9.278;2022-12-29T06:44:56;1.20;;;0.30;;
11498;SDS011;5806;48.748;9.278;2022-12-29T06:47:25;0.40;;;0.20;;
11498;SDS011;5806;48.748;9.278;2022-12-29T06:49:52;3.40;;;0.30;;
11498;SDS011;5806;48.748;9.278;2022-12-29T06:52:20;0.70;;;0.20;;
11498;SDS011;5806;48.748;9.278;2022-12-29T06:54:49;1.07;;;0.30;;
11498;SDS011;5806;48.748;9.278;2022-12-29T06:57:17;0.40;;;0.30;;
11498;SDS011;5806;48.748;9.278;2022-12-29T06:59:44;0.60;;;0.30;;
11498;SDS011;5806;48.748;9.278;2022-12-29T07:02:12;0.30;;;0.20;;
11498;SDS011;5806;48.748;9.278;2022-12-29T07:04:42;0.33;;;0.30;;
11498;SDS011;5806;48.748;9.278;2022-12-29T07:07:09;0.10;;;0.10;;
11498;SDS011;5806;48.748;9.278;2022-12-29T07:09:36;1.50;;;0.27;;
11498;SDS011;5806;48.748;9.278;2022-12-29T07:12:04;0.70;;;0.30;;
11498;SDS011;5806;48.748;9.278;2022-12-29T07:14:31;0.30;;;0.20;;
11498;SDS011;5806;48.748;9.278;2022-12-29T07:16:59;0.47;;;0.20;;
11498;SDS011;5806;48.748;9.278;2022-12-29T07:19:26;0.60;;;0.30;;
11498;SDS011;5806;48.748;9.278;2022-12-29T07:21:54;1.90;;;0.30;;
11498;SDS011;5806;48.748;9.278;2022-12-29T07:24:22;1.90;;;0.20;;
11498;SDS011;5806;48.748;9.278;2022-12-29T07:26:51;0.47;;;0.20;;
11498;SDS011;5806;48.748;9.278;2022-12-29T07:29:19;0.90;;;0.30;;
11498;SDS011;5806;48.748;9.278;2022-12-29T07:31:46;2.03;;;0.40;;
11498;SDS011;5806;48.748;9.278;2022-12-29T07:34:13;0.50;;;0.30;;
11498;SDS011;5806;48.748;9.278;2022-12-29T07:36:41;1.43;;;0.20;;
11498;SDS011;5806;48.748;9.278;2022-12-29T07:39:08;1.53;;;0.40;;
11498;SDS011;5806;48.748;9.278;2022-12-29T07:41:37;1.53;;;0.40;;
11498;SDS011;5806;48.748;9.278;2022-12-29T07:44:04;0.53;;;0.30;;
11498;SDS011;5806;48.748;9.278;2022-12-29T07:46:31;1.43;;;0.30;;
11498;SDS011;5806;48.748;9.278;2022-12-29T07:48:59;0.20;;;0.20;;
11498;SDS011;5806;48.748;9.278;2022-12-29T07:51:26;1.90;;;0.40;;
11498;SDS011;5806;48.748;9.278;2022-12-29T07:53:54;1.53;;;0.40;;
11498;SDS011;5806;48.748;9.278;2022-12-29T07:56:21;1.43;;;0.30;;
11498;SDS011;5806;48.748;9.278;2022-12-29T07:58:48;0.93;;;0.20;;
11498;SDS011;5806;48.748;9.278;2022-12-29T08:01:16;1.47;;;0.53;;
11498;SDS011;5806;48.748;9.278;2022-12-29T08:03:43;0.87;;;0.30;;
11498;SDS011;5806;48.748;9.278;2022-12-29T08:06:11;2.07;;;0.47;;
11498;SDS011;5806;48.748;9.278;2022-12-29T08:08:39;0.63;;;0.50;;
11498;SDS011;5806;48.748;9.278;2022-12-29T08:11:06;1.73;;;0.53;;
11498;SDS011;5806;48.748;9.278;2022-12-29T08:13:33;0.67;;;0.30;;
11498;SDS011;5806;48.748;9.278;2022-12-29T08:16:01;3.50;;;0.57;;
11498;SDS011;5806;48.748;9.278;2022-12-29T08:18:28;1.50;;;0.63;;
11498;SDS011;5806;48.748;9.278;2022-12-29T08:21:00;2.57;;;0.60;;
11498;SDS011;5806;48.748;9.278;2022-12-29T08:23:28;1.97;;;0.60;;
11498;SDS011;5806;48.748;9.278;2022-12-29T08:25:57;5.60;;;1.07;;
11498;SDS011;5806;48.748;9.278;2022-12-29T08:28:29;2.80;;;0.63;;
11498;SDS011;5806;48.748;9.278;2022-12-29T08:30:57;3.43;;;0.80;;
11498;SDS011;5806;48.748;9.278;2022-12-29T08:33:25;2.63;;;0.80;;
11498;SDS011;5806;48.748;9.278;2022-12-29T08:35:58;2.93;;;1.03;;
11498;SDS011;5806;48.748;9.278;2022-12-29T08:38:29;2.00;;;0.73;;
11498;SDS011;5806;48.748;9.278;2022-12-29T08:40:58;1.77;;;1.00;;
11498;SDS011;5806;48.748;9.278;2022-12-29T08:43:27;2.07;;;0.70;;
11498;SDS011;5806;48.748;9.278;2022-12-29T08:45:57;3.27;;;1.23;;
11498;SDS011;5806;48.748;9.278;2022-12-29T08:48:25;4.57;;;0.80;;
11498;SDS011;5806;48.748;9.278;2022-12-29T08:50:53;1.40;;;0.90;;
11498;SDS011;5806;48.748;9.278;2022-12-29T08:53:20;2.73;;;0.87;;
11498;SDS011;5806;48.748;9.278;2022-12-29T08:55:54;3.20;;;0.83;;
11498;SDS011;5806;48.748;9.278;2022-12-29T08:58:18;4.30;;;0.60;;
11498;SDS011;5806;48.748;9.278;2022-12-29T09:00:46;2.87;;;0.90;;
11498;SDS011;5806;48.748;9.278;2022-12-29T09:03:13;6.40;;;0.90;;
11498;SDS011;5806;48.748;9.278;2022-12-29T09:05:40;2.40;;;0.90;;
11498;SDS011;5806;48.748;9.278;2022-12-29T09:08:08;4.67;;;1.17;;
11498;SDS011;5806;48.748;9.278;2022-12-29T09:10:35;2.47;;;1.00;;
11498;SDS011;5806;48.748;9.278;2022-12-29T09:13:03;4.33;;;1.17;;
11498;SDS011;5806;48.748;9.278;2022-12-29T09:15:30;1.70;;;0.70;;
11498;SDS011;5806;48.748;9.278;2022-12-29T09:17:57;4.47;;;1.10;;
11498;SDS011;5806;48.748;9.278;2022-12-29T09:20:25;3.63;;;0.80;;
11498;SDS011;5806;48.748;9.278;2022-12-29T09:22:52;3.80;;;0.80;;
11498;SDS011;5806;48.748;9.278;2022-12-29T09:25:20;3.30;;;0.97;;
11498;SDS011;5806;48.748;9.278;2022-12-29T09:27:49;3.53;;;0.80;;
11498;SDS011;5806;48.748;9.278;2022-12-29T09:30:19;2.10;;;0.80;;
11498;SDS011;5806;48.748;9.278;2022-12-29T09:32:48;1.67;;;0.50;;
11498;SDS011;5806;48.748;9.278;2022-12-29T09:35:15;3.10;;;0.90;;
11498;SDS011;5806;48.748;9.278;2022-12-29T09:37:43;3.93;;;0.97;;
11498;SDS011;5806;48.748;9.278;2022-12-29T09:45:36;5.30;;;1.20;;
11498;SDS011;5806;48.748;9.278;2022-12-29T09:48:04;3.73;;;0.97;;
11498;SDS011;5806;48.748;9.278;2022-12-29T09:50:34;3.93;;;0.90;;
11498;SDS011;5806;48.748;9.278;2022-12-29T09:53:05;3.27;;;0.90;;
11498;SDS011;5806;48.748;9.278;2022-12-29T09:55:52;3.27;;;1.00;;
11498;SDS011;5806;48.748;9.278;2022-12-29T09:58:19;4.43;;;1.10;;
11498;SDS011;5806;48.748;9.278;2022-12-29T10:01:04;5.83;;;1.40;;
11498;SDS011;5806;48.748;9.278;2022-12-29T10:03:43;4.73;;;1.57;;
11498;SDS011;5806;48.748;9.278;2022-12-29T10:06:23;5.20;;;1.20;;
11498;SDS011;5806;48.748;9.278;2022-12-29T10:09:13;4.07;;;0.97;;
11498;SDS011;5806;48.748;9.278;2022-12-29T10:12:16;4.27;;;1.00;;
11498;SDS011;5806;48.748;9.278;2022-12-29T10:25:31;6.50;;;1.80;;
11498;SDS011;5806;48.748;9.278;2022-12-29T10:28:00;3.47;;;1.10;;
11498;SDS011;5806;48.748;9.278;2022-12-29T10:30:30;5.30;;;1.20;;
11498;SDS011;5806;48.748;9.278;2022-12-29T10:33:06;3.70;;;0.90;;
11498;SDS011;5806;48.748;9.278;2022-12-29T10:35:32;7.60;;;1.13;;
11498;SDS011;5806;48.748;9.278;2022-12-29T10:40:57;6.77;;;1.50;;
11498;SDS011;5806;48.748;9.278;2022-12-29T10:43:32;6.57;;;1.27;;
11498;SDS011;5806;48.748;9.278;2022-12-29T10:46:14;3.40;;;0.90;;
11498;SDS011;5806;48.748;9.278;2022-12-29T10:48:43;6.90;;;1.30;;
11498;SDS011;5806;48.748;9.278;2022-12-29T10:51:15;6.20;;;1.40;;
11498;SDS011;5806;48.748;9.278;2022-12-29T10:53:52;3.23;;;0.97;;
11498;SDS011;5806;48.748;9.278;2022-12-29T10:56:29;4.57;;;1.03;;
11498;SDS011;5806;48.748;9.278;2022-12-29T10:59:07;6.77;;;1.10;;
11498;SDS011;5806;48.748;9.278;2022-12-29T11:01:34;1.93;;;0.80;;
11498;SDS011;5806;48.748;9.278;2022-12-29T11:06:44;3.43;;;1.03;;
11498;SDS011;5806;48.748;9.278;2022-12-29T11:09:16;4.87;;;1.30;;
11498;SDS011;5806;48.748;9.278;2022-12-29T11:11:45;6.23;;;1.27;;
11498;SDS011;5806;48.748;9.278;2022-12-29T11:14:19;3.80;;;0.93;;
11498;SDS011;5806;48.748;9.278;2022-12-29T11:16:59;2.20;;;1.17;;
11498;SDS011;5806;48.748;9.278;2022-12-29T11:19:29;4.83;;;0.90;;
11498;SDS011;5806;48.748;9.278;2022-12-29T11:22:42;2.73;;;0.80;;
11498;SDS011;5806;48.748;9.278;2022-12-29T11:24:51;3.50;;;0.97;;
11498;SDS011;5806;48.748;9.278;2022-12-29T11:27:21;3.27;;;1.10;;
11498;SDS011;5806;48.748;9.278;2022-12-29T11:29:51;3.67;;;1.03;;
11498;SDS011;5806;48.748;9.278;2022-12-29T11:32:28;4.50;;;0.87;;
11498;SDS011;5806;48.748;9.278;2022-12-29T11:34:58;4.33;;;1.10;;
11498;SDS011;5806;48.748;9.278;2022-12-29T11:37:36;4.60;;;1.00;;
11498;SDS011;5806;48.748;9.278;2022-12-29T11:40:06;4.87;;;1.00;;
11498;SDS011;5806;48.748;9.278;2022-12-29T11:42:51;6.23;;;1.03;;
11498;SDS011;5806;48.748;9.278;2022-12-29T11:45:36;4.93;;;1.27;;
11498;SDS011;5806;48.748;9.278;2022-12-29T11:48:12;5.03;;;1.20;;
11498;SDS011;5806;48.748;9.278;2022-12-29T11:50:42;4.90;;;1.10;;
11498;SDS011;5806;48.748;9.278;2022-12-29T11:53:17;3.67;;;0.93;;
11498;SDS011;5806;48.748;9.278;2022-12-29T11:55:56;3.67;;;0.90;;
11498;SDS011;5806;48.748;9.278;2022-12-29T11:58:29;6.50;;;1.57;;
11498;SDS011;5806;48.748;9.278;2022-12-29T12:01:02;7.90;;;1.33;;
11498;SDS011;5806;48.748;9.278;2022-12-29T12:03:35;4.80;;;1.30;;
11498;SDS011;5806;48.748;9.278;2022-12-29T12:06:05;4.13;;;1.10;;
11498;SDS011;5806;48.748;9.278;2022-12-29T12:08:54;3.37;;;1.40;;
11498;SDS011;5806;48.748;9.278;2022-12-29T12:11:10;4.03;;;1.20;;
11498;SDS011;5806;48.748;9.278;2022-12-29T12:13:40;5.67;;;1.10;;
11498;SDS011;5806;48.748;9.278;2022-12-29T12:16:22;6.60;;;1.00;;
11498;SDS011;5806;48.748;9.278;2022-12-29T12:27:42;5.23;;;1.50;;
11498;SDS011;5806;48.748;9.278;2022-12-29T12:30:22;6.97;;;1.00;;
11498;SDS011;5806;48.748;9.278;2022-12-29T12:32:56;5.97;;;1.23;;
11498;SDS011;5806;48.748;9.278;2022-12-29T12:35:35;7.63;;;1.47;;
11498;SDS011;5806;48.748;9.278;2022-12-29T12:54:41;4.97;;;1.30;;
11498;SDS011;5806;48.748;9.278;2022-12-29T13:00:07;2.63;;;1.30;;
11498;SDS011;5806;48.748;9.278;2022-12-29T13:02:46;2.67;;;1.23;;
11498;SDS011;5806;48.748;9.278;2022-12-29T13:05:37;8.83;;;1.27;;
11498;SDS011;5806;48.748;9.278;2022-12-29T13:19:29;3.40;;;0.80;;
11498;SDS011;5806;48.748;9.278;2022-12-29T13:24:57;7.37;;;1.37;;
11498;SDS011;5806;48.748;9.278;2022-12-29T13:27:44;3.93;;;0.97;;
11498;SDS011;5806;48.748;9.278;2022-12-29T13:30:20;5.20;;;1.27;;
11498;SDS011;5806;48.748;9.278;2022-12-29T13:32:56;3.67;;;1.03;;
11498;SDS011;5806;48.748;9.278;2022-12-29T13:35:45;5.77;;;1.40;;
11498;SDS011;5806;48.748;9.278;2022-12-29T13:38:32;4.33;;;1.10;;
11498;SDS011;5806;48.748;9.278;2022-12-29T13:41:04;5.50;;;1.53;;
11498;SDS011;5806;48.748;9.278;2022-12-29T13:43:34;3.27;;;1.00;;
11498;SDS011;5806;48.748;9.278;2022-12-29T13:46:09;3.03;;;1.20;;
11498;SDS011;5806;48.748;9.278;2022-12-29T13:49:06;5.77;;;0.97;;
11498;SDS011;5806;48.748;9.278;2022-12-29T13:51:30;7.27;;;1.40;;
11498;SDS011;5806;48.748;9.278;2022-12-29T13:56:52;4.40;;;1.30;;
11498;SDS011;5806;48.748;9.278;2022-12-29T14:02:14;7.73;;;1.40;;
11498;SDS011;5806;48.748;9.278;2022-12-29T14:04:55;4.17;;;2.00;;
11498;SDS011;5806;48.748;9.278;2022-12-29T14:07:17;3.70;;;1.20;;
11498;SDS011;5806;48.748;9.278;2022-12-29T14:09:51;3.27;;;1.37;;
11498;SDS011;5806;48.748;9.278;2022-12-29T14:12:31;4.10;;;1.10;;
11498;SDS011;5806;48.748;9.278;2022-12-29T14:15:14;3.97;;;1.20;;
11498;SDS011;5806;48.748;9.278;2022-12-29T14:17:37;4.23;;;1.00;;
11498;SDS011;5806;48.748;9.278;2022-12-29T14:20:16;6.40;;;1.53;;
11498;SDS011;5806;48.748;9.278;2022-12-29T14:22:56;3.43;;;1.13;;
11498;SDS011;5806;48.748;9.278;2022-12-29T14:31:05;6.07;;;1.40;;
11498;SDS011;5806;48.748;9.278;2022-12-29T14:36:39;6.17;;;1.50;;
11498;SDS011;5806;48.748;9.278;2022-12-29T14:39:43;6.00;;;1.43;;
11498;SDS011;5806;48.748;9.278;2022-12-29T14:44:48;5.60;;;1.60;;
11498;SDS011;5806;48.748;9.278;2022-12-29T14:50:07;3.07;;;0.80;;
11498;SDS011;5806;48.748;9.278;2022-12-29T14:58:20;4.30;;;0.93;;
11498;SDS011;5806;48.748;9.278;2022-12-29T15:00:58;4.73;;;1.37;;
11498;SDS011;5806;48.748;9.278;2022-12-29T15:03:30;3.97;;;0.90;;
11498;SDS011;5806;48.748;9.278;2022-12-29T15:06:13;6.13;;;1.00;;
11498;SDS011;5806;48.748;9.278;2022-12-29T15:08:54;5.63;;;1.40;;
11498;SDS011;5806;48.748;9.278;2022-12-29T15:11:24;5.83;;;1.40;;
11498;SDS011;5806;48.748;9.278;2022-12-29T15:16:55;3.27;;;1.07;;
11498;SDS011;5806;48.748;9.278;2022-12-29T15:19:23;4.83;;;1.40;;
11498;SDS011;5806;48.748;9.278;2022-12-29T15:21:53;4.97;;;1.60;;
11498;SDS011;5806;48.748;9.278;2022-12-29T15:24:22;7.07;;;1.97;;
11498;SDS011;5806;48.748;9.278;2022-12-29T15:26:51;4.63;;;1.30;;
11498;SDS011;5806;48.748;9.278;2022-12-29T15:29:40;5.60;;;1.27;;
11498;SDS011;5806;48.748;9.278;2022-12-29T15:34:54;5.80;;;1.80;;
11498;SDS011;5806;48.748;9.278;2022-12-29T15:37:34;6.07;;;2.07;;
11498;SDS011;5806;48.748;9.278;2022-12-29T15:40:02;5.57;;;1.60;;
11498;SDS011;5806;48.748;9.278;2022-12-29T15:42:33;2.63;;;1.40;;
11498;SDS011;5806;48.748;9.278;2022-12-29T15:45:02;6.27;;;1.43;;
11498;SDS011;5806;48.748;9.278;2022-12-29T15:47:33;7.13;;;1.80;;
11498;SDS011;5806;48.748;9.278;2022-12-29T15:50:09;4.23;;;1.60;;
11498;SDS011;5806;48.748;9.278;2022-12-29T15:52:34;5.10;;;1.40;;
11498;SDS011;5806;48.748;9.278;2022-12-29T15:55:03;4.97;;;1.17;;
11498;SDS011;5806;48.748;9.278;2022-12-29T15:57:36;5.77;;;1.40;;
11498;SDS011;5806;48.748;9.278;2022-12-29T16:00:20;5.17;;;1.60;;
11498;SDS011;5806;48.748;9.278;2022-12-29T16:02:51;5.23;;;1.30;;
11498;SDS011;5806;48.748;9.278;2022-12-29T16:05:21;5.83;;;1.83;;
11498;SDS011;5806;48.748;9.278;2022-12-29T16:07:53;4.67;;;1.30;;
11498;SDS011;5806;48.748;9.278;2022-12-29T16:10:25;4.40;;;1.50;;
11498;SDS011;5806;48.748;9.278;2022-12-29T16:12:54;3.93;;;1.40;;
11498;SDS011;5806;48.748;9.278;2022-12-29T16:15:23;4.70;;;1.37;;
11498;SDS011;5806;48.748;9.278;2022-12-29T16:17:52;4.00;;;1.17;;
11498;SDS011;5806;48.748;9.278;2022-12-29T16:20:21;6.30;;;1.93;;
11498;SDS011;5806;48.748;9.278;2022-12-29T16:23:04;5.73;;;1.57;;
11498;SDS011;5806;48.748;9.278;2022-12-29T16:25:32;6.17;;;1.87;;
11498;SDS011;5806;48.748;9.278;2022-12-29T16:28:03;4.73;;;1.53;;
11498;SDS011;5806;48.748;9.278;2022-12-29T16:30:33;5.77;;;1.87;;
11498;SDS011;5806;48.748;9.278;2022-12-29T16:33:01;4.73;;;1.43;;
11498;SDS011;5806;48.748;9.278;2022-12-29T16:38:16;6.53;;;1.67;;
11498;SDS011;5806;48.748;9.278;2022-12-29T16:43:25;7.90;;;1.73;;
11498;SDS011;5806;48.748;9.278;2022-12-29T16:48:29;2.87;;;1.40;;
11498;SDS011;5806;48.748;9.278;2022-12-29T16:51:03;6.53;;;2.33;;
11498;SDS011;5806;48.748;9.278;2022-12-29T16:53:36;7.27;;;3.17;;
11498;SDS011;5806;48.748;9.278;2022-12-29T16:56:13;4.77;;;1.83;;
11498;SDS011;5806;48.748;9.278;2022-12-29T16:58:48;9.47;;;1.80;;
11498;SDS011;5806;48.748;9.278;2022-12-29T17:01:35;6.23;;;1.80;;
11498;SDS011;5806;48.748;9.278;2022-12-29T17:04:12;8.83;;;2.30;;
11498;SDS011;5806;48.748;9.278;2022-12-29T17:06:37;7.10;;;2.00;;
11498;SDS011;5806;48.748;9.278;2022-12-29T17:11:57;6.40;;;2.20;;
11498;SDS011;5806;48.748;9.278;2022-12-29T17:17:05;4.43;;;1.30;;
11498;SDS011;5806;48.748;9.278;2022-12-29T17:19:47;5.20;;;1.50;;
11498;SDS011;5806;48.748;9.278;2022-12-29T17:22:18;3.67;;;1.30;;
11498;SDS011;5806;48.748;9.278;2022-12-29T17:24:49;4.77;;;1.63;;
11498;SDS011;5806;48.748;9.278;2022-12-29T17:27:19;5.63;;;1.53;;
11498;SDS011;5806;48.748;9.278;2022-12-29T17:29:51;5.83;;;1.90;;
11498;SDS011;5806;48.748;9.278;2022-12-29T17:32:21;6.87;;;2.20;;
11498;SDS011;5806;48.748;9.278;2022-12-29T17:34:49;6.27;;;1.57;;
11498;SDS011;5806;48.748;9.278;2022-12-29T17:39:46;5.07;;;1.67;;
11498;SDS011;5806;48.748;9.278;2022-12-29T17:42:14;4.87;;;1.60;;
11498;SDS011;5806;48.748;9.278;2022-12-29T17:44:41;9.13;;;1.80;;
11498;SDS011;5806;48.748;9.278;2022-12-29T17:47:09;7.73;;;2.20;;
11498;SDS011;5806;48.748;9.278;2022-12-29T17:49:37;8.43;;;2.43;;
11498;SDS011;5806;48.748;9.278;2022-12-29T17:52:04;6.13;;;2.23;;